sensor_id;sensor_type;location;lat;lon;timestamp;pressure;altitude;pressure_sealevel;temperature;humidity
9521;BME280;4798;41.574;23.734;2023-02-11T00:01:18;96914.25;;;0.31;50.18
9521;BME280;4798;41.574;23.734;2023-02-11T00:03:49;96921.47;;;0.13;50.33
9521;BME280;4798;41.574;23.734;2023-02-11T00:06:17;96922.44;;;0.20;50.66
9521;BME280;4798;41.574;23.734;2023-02-11T00:08:45;96932.88;;;0.04;51.21
9521;BME280;4798;41.574;23.734;2023-02-11T00:11:15;96933.72;;;0.05;51.32
9521;BME280;4798;41.574;23.734;2023-02-11T00:13:44;96931.75;;;0.07;50.97
9521;BME280;4798;41.574;23.734;2023-02-11T00:16:14;96932.56;;;-0.01;51.50
9521;BME280;4798;41.574;23.734;2023-02-11T00:18:43;96879.97;;;-0.45;51.57
9521;BME280;4798;41.574;23.734;2023-02-11T00:21:15;96933.53;;;-0.10;51.53
9521;BME280;4798;41.574;23.734;2023-02-11T00:23:44;96906.66;;;-0.27;51.79
9521;BME280;4798;41.574;23.734;2023-02-11T00:26:13;96923.75;;;-0.56;51.98
9521;BME280;4798;41.574;23.734;2023-02-11T00:28:42;96935.00;;;-0.56;52.57
9521;BME280;4798;41.574;23.734;2023-02-11T00:31:10;96926.19;;;-0.47;52.35
9521;BME280;4798;41.574;23.734;2023-02-11T00:33:39;96936.97;;;-0.34;52.05
9521;BME280;4798;41.574;23.734;2023-02-11T00:36:11;96930.44;;;-0.30;52.00
9521;BME280;4798;41.574;23.734;2023-02-11T00:38:43;96918.22;;;-0.37;51.87
9521;BME280;4798;41.574;23.734;2023-02-11T00:41:13;96951.28;;;-0.38;51.80
9521;BME280;4798;41.574;23.734;2023-02-11T00:43:41;96935.97;;;-0.33;51.57
9521;BME280;4798;41.574;23.734;2023-02-11T00:46:10;96948.38;;;-0.19;51.44
9521;BME280;4798;41.574;23.734;2023-02-11T00:48:38;96888.59;;;-0.69;51.32
9521;BME280;4798;41.574;23.734;2023-02-11T00:51:08;96887.72;;;-0.93;51.91
9521;BME280;4798;41.574;23.734;2023-02-11T00:53:36;96929.16;;;-0.34;51.53
9521;BME280;4798;41.574;23.734;2023-02-11T00:56:06;96935.97;;;-0.33;51.82
9521;BME280;4798;41.574;23.734;2023-02-11T00:58:35;96935.97;;;-0.33;51.69
9521;BME280;4798;41.574;23.734;2023-02-11T01:01:04;96941.53;;;-0.36;51.84
9521;BME280;4798;41.574;23.734;2023-02-11T01:03:32;96931.91;;;-0.35;52.07
9521;BME280;4798;41.574;23.734;2023-02-11T01:06:01;96932.72;;;-0.51;52.24
9521;BME280;4798;41.574;23.734;2023-02-11T01:08:29;96853.47;;;-1.31;52.58
9521;BME280;4798;41.574;23.734;2023-02-11T01:11:00;96941.50;;;-1.10;53.70
9521;BME280;4798;41.574;23.734;2023-02-11T01:13:31;96933.34;;;-0.65;52.87
9521;BME280;4798;41.574;23.734;2023-02-11T01:16:00;96929.59;;;-0.63;52.59
9521;BME280;4798;41.574;23.734;2023-02-11T01:18:28;96931.63;;;-0.98;53.89
9521;BME280;4798;41.574;23.734;2023-02-11T01:20:57;96908.16;;;-1.14;54.48
9521;BME280;4798;41.574;23.734;2023-02-11T01:23:25;96917.78;;;-1.07;54.30
9521;BME280;4798;41.574;23.734;2023-02-11T01:25:53;96906.50;;;-1.23;54.34
9521;BME280;4798;41.574;23.734;2023-02-11T01:28:23;96844.06;;;-1.73;54.74
9521;BME280;4798;41.574;23.734;2023-02-11T01:30:54;96919.75;;;-1.01;54.27
9521;BME280;4798;41.574;23.734;2023-02-11T01:33:23;96852.25;;;-1.60;54.39
9521;BME280;4798;41.574;23.734;2023-02-11T01:35:51;96928.53;;;-1.44;55.03
9521;BME280;4798;41.574;23.734;2023-02-11T01:38:22;96899.13;;;-2.04;56.50
9521;BME280;4798;41.574;23.734;2023-02-11T01:40:53;96934.72;;;-1.96;57.18
9521;BME280;4798;41.574;23.734;2023-02-11T01:43:22;96928.41;;;-1.68;56.69
9521;BME280;4798;41.574;23.734;2023-02-11T01:46:30;96933.94;;;-1.37;55.68
9521;BME280;4798;41.574;23.734;2023-02-11T01:49:03;96928.53;;;-1.44;55.97
9521;BME280;4798;41.574;23.734;2023-02-11T01:51:35;96928.63;;;-1.19;55.52
9521;BME280;4798;41.574;23.734;2023-02-11T01:54:05;96910.09;;;-1.24;55.30
9521;BME280;4798;41.574;23.734;2023-02-11T01:56:54;96890.44;;;-2.12;56.59
9521;BME280;4798;41.574;23.734;2023-02-11T01:59:44;96840.19;;;-2.29;57.62
9521;BME280;4798;41.574;23.734;2023-02-11T02:02:18;96913.47;;;-1.66;57.18
9521;BME280;4798;41.574;23.734;2023-02-11T02:04:58;96918.06;;;-1.52;56.88
9521;BME280;4798;41.574;23.734;2023-02-11T02:07:32;96908.09;;;-1.72;56.90
9521;BME280;4798;41.574;23.734;2023-02-11T02:10:06;96905.47;;;-1.72;56.96
9521;BME280;4798;41.574;23.734;2023-02-11T02:12:36;96902.47;;;-1.60;56.39
9521;BME280;4798;41.574;23.734;2023-02-11T02:15:19;96911.28;;;-1.78;56.61
9521;BME280;4798;41.574;23.734;2023-02-11T02:17:57;96908.75;;;-1.96;56.75
9521;BME280;4798;41.574;23.734;2023-02-11T02:23:56;96894.25;;;-1.39;55.76
9521;BME280;4798;41.574;23.734;2023-02-11T02:33:05;96898.72;;;-1.57;56.13
9521;BME280;4798;41.574;23.734;2023-02-11T02:35:54;96893.38;;;-1.56;55.76
9521;BME280;4798;41.574;23.734;2023-02-11T02:38:30;96897.63;;;-1.80;56.28
9521;BME280;4798;41.574;23.734;2023-02-11T02:41:02;96900.41;;;-1.74;56.33
9521;BME280;4798;41.574;23.734;2023-02-11T02:43:32;96906.63;;;-1.67;56.00
9521;BME280;4798;41.574;23.734;2023-02-11T02:46:13;96899.81;;;-1.94;56.64
9521;BME280;4798;41.574;23.734;2023-02-11T02:48:44;96905.38;;;-1.88;56.57
9521;BME280;4798;41.574;23.734;2023-02-11T02:51:26;96906.56;;;-1.83;56.64
9521;BME280;4798;41.574;23.734;2023-02-11T02:54:09;96906.34;;;-2.15;56.71
9521;BME280;4798;41.574;23.734;2023-02-11T02:56:48;96901.97;;;-1.89;55.99
9521;BME280;4798;41.574;23.734;2023-02-11T02:59:31;96907.97;;;-2.14;55.96
9521;BME280;4798;41.574;23.734;2023-02-11T03:02:10;96914.97;;;-2.32;57.29
9521;BME280;4798;41.574;23.734;2023-02-11T03:04:50;96879.88;;;-2.36;56.64
9521;BME280;4798;41.574;23.734;2023-02-11T03:07:26;96897.94;;;-2.09;56.36
9521;BME280;4798;41.574;23.734;2023-02-11T03:10:03;96906.94;;;-2.21;56.98
9521;BME280;4798;41.574;23.734;2023-02-11T03:12:35;96878.88;;;-2.43;56.93
9521;BME280;4798;41.574;23.734;2023-02-11T03:15:05;96896.34;;;-2.28;57.00
9521;BME280;4798;41.574;23.734;2023-02-11T03:17:35;96901.22;;;-2.25;57.55
9521;BME280;4798;41.574;23.734;2023-02-11T03:20:10;96906.94;;;-2.21;56.96
9521;BME280;4798;41.574;23.734;2023-02-11T03:22:44;96902.03;;;-2.24;56.75
9521;BME280;4798;41.574;23.734;2023-02-11T03:25:15;96904.66;;;-2.24;57.42
9521;BME280;4798;41.574;23.734;2023-02-11T03:27:46;96904.16;;;-2.28;57.35
9521;BME280;4798;41.574;23.734;2023-02-11T03:30:21;96904.16;;;-2.45;57.65
9521;BME280;4798;41.574;23.734;2023-02-11T03:32:56;96901.38;;;-2.26;57.40
9521;BME280;4798;41.574;23.734;2023-02-11T03:35:32;96886.63;;;-2.26;57.11
9521;BME280;4798;41.574;23.734;2023-02-11T03:38:08;96894.75;;;-2.46;57.89
9521;BME280;4798;41.574;23.734;2023-02-11T03:40:40;96896.44;;;-2.37;57.75
9521;BME280;4798;41.574;23.734;2023-02-11T03:43:14;96898.63;;;-2.25;57.15
9521;BME280;4798;41.574;23.734;2023-02-11T03:45:47;96896.97;;;-2.08;56.59
9521;BME280;4798;41.574;23.734;2023-02-11T03:48:21;96898.09;;;-2.11;56.40
9521;BME280;4798;41.574;23.734;2023-02-11T03:50:52;96902.72;;;-2.40;57.26
9521;BME280;4798;41.574;23.734;2023-02-11T03:53:21;96904.28;;;-2.29;57.12
9521;BME280;4798;41.574;23.734;2023-02-11T03:55:51;96824.72;;;-2.82;56.86
9521;BME280;4798;41.574;23.734;2023-02-11T03:58:21;96907.72;;;-2.03;56.37
9521;BME280;4798;41.574;23.734;2023-02-11T04:00:49;96905.53;;;-2.16;56.44
9521;BME280;4798;41.574;23.734;2023-02-11T04:03:18;96907.78;;;-2.38;57.03
9521;BME280;4798;41.574;23.734;2023-02-11T04:05:46;96908.75;;;-2.39;57.17
9521;BME280;4798;41.574;23.734;2023-02-11T04:08:16;96899.94;;;-2.46;57.29
9521;BME280;4798;41.574;23.734;2023-02-11T04:10:45;96895.84;;;-2.49;57.18
9521;BME280;4798;41.574;23.734;2023-02-11T04:13:13;96903.34;;;-2.28;57.05
9521;BME280;4798;41.574;23.734;2023-02-11T04:15:41;96907.25;;;-2.42;57.24
9521;BME280;4798;41.574;23.734;2023-02-11T04:18:09;96893.09;;;-2.47;56.97
9521;BME280;4798;41.574;23.734;2023-02-11T04:20:38;96899.63;;;-2.43;57.21
9521;BME280;4798;41.574;23.734;2023-02-11T04:23:06;96911.19;;;-2.91;58.01
9521;BME280;4798;41.574;23.734;2023-02-11T04:25:37;96907.66;;;-2.90;59.32
9521;BME280;4798;41.574;23.734;2023-02-11T04:28:05;96905.50;;;-2.77;58.82
9521;BME280;4798;41.574;23.734;2023-02-11T04:30:34;96901.56;;;-2.63;58.71
9521;BME280;4798;41.574;23.734;2023-02-11T04:33:02;96906.09;;;-2.83;58.29
9521;BME280;4798;41.574;23.734;2023-02-11T04:35:30;96914.75;;;-3.09;60.12
9521;BME280;4798;41.574;23.734;2023-02-11T04:37:59;96919.28;;;-3.21;60.47
9521;BME280;4798;41.574;23.734;2023-02-11T04:40:27;96912.88;;;-3.17;61.49
9521;BME280;4798;41.574;23.734;2023-02-11T04:42:57;96918.69;;;-2.88;60.52
9521;BME280;4798;41.574;23.734;2023-02-11T04:45:25;96914.19;;;-2.50;58.95
9521;BME280;4798;41.574;23.734;2023-02-11T04:47:54;96919.06;;;-2.65;59.36
9521;BME280;4798;41.574;23.734;2023-02-11T04:50:22;96921.94;;;-2.68;59.22
9521;BME280;4798;41.574;23.734;2023-02-11T04:52:53;96916.72;;;-2.59;58.76
9521;BME280;4798;41.574;23.734;2023-02-11T04:55:21;96915.06;;;-2.77;58.77
9521;BME280;4798;41.574;23.734;2023-02-11T04:57:50;96858.81;;;-2.94;58.76
9521;BME280;4798;41.574;23.734;2023-02-11T05:00:20;96917.88;;;-2.71;58.67
9521;BME280;4798;41.574;23.734;2023-02-11T05:02:48;96911.56;;;-2.86;58.85
9521;BME280;4798;41.574;23.734;2023-02-11T05:05:16;96910.69;;;-2.77;58.92
9521;BME280;4798;41.574;23.734;2023-02-11T05:07:45;96918.09;;;-2.82;59.18
9521;BME280;4798;41.574;23.734;2023-02-11T05:10:14;96919.34;;;-2.86;59.42
9521;BME280;4798;41.574;23.734;2023-02-11T05:12:42;96925.66;;;-2.71;59.00
9521;BME280;4798;41.574;23.734;2023-02-11T05:15:11;96922.16;;;-2.97;59.24
9521;BME280;4798;41.574;23.734;2023-02-11T05:17:40;96921.75;;;-2.75;58.53
9521;BME280;4798;41.574;23.734;2023-02-11T05:20:09;96915.16;;;-2.69;57.92
9521;BME280;4798;41.574;23.734;2023-02-11T05:22:38;96921.22;;;-2.78;58.02
9521;BME280;4798;41.574;23.734;2023-02-11T05:25:06;96926.41;;;-2.61;58.16
9521;BME280;4798;41.574;23.734;2023-02-11T05:27:35;96926.84;;;-2.65;57.66
9521;BME280;4798;41.574;23.734;2023-02-11T05:30:04;96902.84;;;-2.85;58.05
9521;BME280;4798;41.574;23.734;2023-02-11T05:32:33;96837.41;;;-3.14;57.35
9521;BME280;4798;41.574;23.734;2023-02-11T05:35:03;96913.50;;;-2.52;57.10
9521;BME280;4798;41.574;23.734;2023-02-11T05:37:31;96870.88;;;-3.03;57.13
9521;BME280;4798;41.574;23.734;2023-02-11T05:39:59;96911.34;;;-2.92;58.07
9521;BME280;4798;41.574;23.734;2023-02-11T05:42:28;96928.50;;;-2.82;58.18
9521;BME280;4798;41.574;23.734;2023-02-11T05:44:56;96938.94;;;-2.74;57.93
9521;BME280;4798;41.574;23.734;2023-02-11T05:47:24;96939.34;;;-2.96;58.06
9521;BME280;4798;41.574;23.734;2023-02-11T05:49:53;96932.56;;;-2.62;57.90
9521;BME280;4798;41.574;23.734;2023-02-11T05:52:23;96912.75;;;-2.63;56.89
9521;BME280;4798;41.574;23.734;2023-02-11T05:54:54;96932.19;;;-2.31;56.72
9521;BME280;4798;41.574;23.734;2023-02-11T05:57:22;96927.53;;;-2.28;56.35
9521;BME280;4798;41.574;23.734;2023-02-11T05:59:51;96939.28;;;-2.16;56.66
9521;BME280;4798;41.574;23.734;2023-02-11T06:02:19;96936.31;;;-2.03;56.58
9521;BME280;4798;41.574;23.734;2023-02-11T06:04:48;96943.69;;;-1.65;55.38
9521;BME280;4798;41.574;23.734;2023-02-11T06:07:18;96937.63;;;-1.48;55.49
9521;BME280;4798;41.574;23.734;2023-02-11T06:09:48;96937.50;;;-0.96;54.02
9521;BME280;4798;41.574;23.734;2023-02-11T06:12:16;96825.84;;;-1.23;52.87
9521;BME280;4798;41.574;23.734;2023-02-11T06:14:44;96939.50;;;-0.74;52.96
9521;BME280;4798;41.574;23.734;2023-02-11T06:17:13;96941.50;;;-0.52;53.12
9521;BME280;4798;41.574;23.734;2023-02-11T06:19:41;96937.94;;;-0.27;52.60
9521;BME280;4798;41.574;23.734;2023-02-11T06:22:10;96937.63;;;-0.16;52.45
9521;BME280;4798;41.574;23.734;2023-02-11T06:24:38;96940.88;;;0.03;51.91
9521;BME280;4798;41.574;23.734;2023-02-11T06:27:27;96935.94;;;0.32;51.14
9521;BME280;4798;41.574;23.734;2023-02-11T06:29:55;96934.50;;;0.21;51.46
9521;BME280;4798;41.574;23.734;2023-02-11T06:32:25;96937.44;;;-0.06;51.87
9521;BME280;4798;41.574;23.734;2023-02-11T06:35:12;96929.28;;;0.21;51.82
9521;BME280;4798;41.574;23.734;2023-02-11T06:37:40;96933.63;;;0.53;50.81
9521;BME280;4798;41.574;23.734;2023-02-11T06:40:11;96935.31;;;-0.43;52.46
9521;BME280;4798;41.574;23.734;2023-02-11T06:42:41;96911.38;;;-0.30;52.61
9521;BME280;4798;41.574;23.734;2023-02-11T06:45:09;96928.50;;;0.05;52.40
9521;BME280;4798;41.574;23.734;2023-02-11T06:47:39;96911.59;;;0.55;51.63
9521;BME280;4798;41.574;23.734;2023-02-11T06:50:10;96852.41;;;0.87;49.58
9521;BME280;4798;41.574;23.734;2023-02-11T06:52:39;96917.91;;;1.61;49.23
9521;BME280;4798;41.574;23.734;2023-02-11T06:55:08;96919.31;;;2.09;48.35
9521;BME280;4798;41.574;23.734;2023-02-11T06:57:37;96915.81;;;2.31;47.59
9521;BME280;4798;41.574;23.734;2023-02-11T07:00:08;96912.84;;;3.07;46.91
9521;BME280;4798;41.574;23.734;2023-02-11T07:02:37;96911.56;;;3.18;46.53
9521;BME280;4798;41.574;23.734;2023-02-11T07:05:06;96886.09;;;3.12;45.91
9521;BME280;4798;41.574;23.734;2023-02-11T07:07:35;96903.06;;;3.16;46.41
9521;BME280;4798;41.574;23.734;2023-02-11T07:10:04;96905.50;;;3.53;45.81
9521;BME280;4798;41.574;23.734;2023-02-11T07:12:32;96889.75;;;4.23;44.93
9521;BME280;4798;41.574;23.734;2023-02-11T07:15:01;96896.75;;;4.44;43.95
9521;BME280;4798;41.574;23.734;2023-02-11T07:17:31;96890.22;;;4.33;43.74
9521;BME280;4798;41.574;23.734;2023-02-11T07:20:01;96907.78;;;3.63;44.52
9521;BME280;4798;41.574;23.734;2023-02-11T07:22:29;96893.28;;;4.09;44.01
9521;BME280;4798;41.574;23.734;2023-02-11T07:24:58;96894.88;;;5.06;42.60
9521;BME280;4798;41.574;23.734;2023-02-11T07:27:26;96885.22;;;5.27;42.21
9521;BME280;4798;41.574;23.734;2023-02-11T07:29:54;96888.94;;;5.45;41.35
9521;BME280;4798;41.574;23.734;2023-02-11T07:32:22;96823.16;;;5.32;39.89
9521;BME280;4798;41.574;23.734;2023-02-11T07:34:52;96882.97;;;5.97;39.57
9521;BME280;4798;41.574;23.734;2023-02-11T07:37:21;96881.72;;;5.80;39.38
9521;BME280;4798;41.574;23.734;2023-02-11T07:39:49;96881.75;;;6.39;38.87
9521;BME280;4798;41.574;23.734;2023-02-11T07:45:07;96866.75;;;6.53;38.55
9521;BME280;4798;41.574;23.734;2023-02-11T07:47:35;96870.41;;;7.47;37.71
9521;BME280;4798;41.574;23.734;2023-02-11T07:50:06;96858.59;;;7.56;37.04
9521;BME280;4798;41.574;23.734;2023-02-11T07:52:34;96864.63;;;6.81;37.71
9521;BME280;4798;41.574;23.734;2023-02-11T07:55:03;96856.22;;;6.53;37.46
9521;BME280;4798;41.574;23.734;2023-02-11T07:57:31;96868.69;;;6.77;37.26
9521;BME280;4798;41.574;23.734;2023-02-11T07:59:59;96859.28;;;7.00;36.24
9521;BME280;4798;41.574;23.734;2023-02-11T08:02:28;96868.19;;;7.44;36.83
9521;BME280;4798;41.574;23.734;2023-02-11T08:04:56;96854.72;;;7.90;36.76
9521;BME280;4798;41.574;23.734;2023-02-11T08:07:26;96845.38;;;8.79;35.46
9521;BME280;4798;41.574;23.734;2023-02-11T08:09:55;96844.16;;;9.30;34.05
9521;BME280;4798;41.574;23.734;2023-02-11T08:12:23;96837.91;;;9.24;34.45
9521;BME280;4798;41.574;23.734;2023-02-11T08:14:52;96835.13;;;9.19;33.64
9521;BME280;4798;41.574;23.734;2023-02-11T08:17:20;96830.13;;;10.58;31.87
9521;BME280;4798;41.574;23.734;2023-02-11T08:19:48;96836.13;;;9.66;32.21
9521;BME280;4798;41.574;23.734;2023-02-11T08:22:16;96823.81;;;9.12;32.07
9521;BME280;4798;41.574;23.734;2023-02-11T08:24:46;96816.59;;;9.49;32.86
9521;BME280;4798;41.574;23.734;2023-02-11T08:27:18;96821.72;;;10.38;33.11
9521;BME280;4798;41.574;23.734;2023-02-11T08:29:46;96781.44;;;9.72;31.62
9521;BME280;4798;41.574;23.734;2023-02-11T08:32:14;96825.88;;;9.28;32.28
9521;BME280;4798;41.574;23.734;2023-02-11T08:34:43;96823.50;;;9.91;31.99
9521;BME280;4798;41.574;23.734;2023-02-11T08:37:11;96807.25;;;9.76;32.02
9521;BME280;4798;41.574;23.734;2023-02-11T08:39:39;96810.59;;;10.88;31.30
9521;BME280;4798;41.574;23.734;2023-02-11T08:42:09;96795.00;;;10.91;31.11
9521;BME280;4798;41.574;23.734;2023-02-11T08:44:37;96809.44;;;11.23;30.42
9521;BME280;4798;41.574;23.734;2023-02-11T08:47:06;96788.69;;;12.87;28.48
9521;BME280;4798;41.574;23.734;2023-02-11T08:49:34;96796.69;;;12.48;27.97
9521;BME280;4798;41.574;23.734;2023-02-11T08:52:03;96781.91;;;11.86;28.89
9521;BME280;4798;41.574;23.734;2023-02-11T08:54:36;96780.69;;;12.10;28.90
9521;BME280;4798;41.574;23.734;2023-02-11T08:57:04;96748.94;;;12.80;28.03
9521;BME280;4798;41.574;23.734;2023-02-11T08:59:34;96778.47;;;12.79;28.14
9521;BME280;4798;41.574;23.734;2023-02-11T09:02:02;96782.59;;;13.61;27.38
9521;BME280;4798;41.574;23.734;2023-02-11T09:04:31;96776.66;;;12.84;28.38
9521;BME280;4798;41.574;23.734;2023-02-11T09:06:59;96776.00;;;12.17;28.73
9521;BME280;4798;41.574;23.734;2023-02-11T09:09:27;96771.97;;;12.31;29.11
9521;BME280;4798;41.574;23.734;2023-02-11T09:11:56;96721.72;;;12.95;28.56
9521;BME280;4798;41.574;23.734;2023-02-11T09:14:27;96694.56;;;12.71;28.35
9521;BME280;4798;41.574;23.734;2023-02-11T09:16:56;96759.91;;;12.84;27.28
9521;BME280;4798;41.574;23.734;2023-02-11T09:19:24;96748.03;;;14.92;25.78
9521;BME280;4798;41.574;23.734;2023-02-11T09:21:53;96743.94;;;13.90;26.00
9521;BME280;4798;41.574;23.734;2023-02-11T09:24:21;96753.34;;;13.13;27.26
9521;BME280;4798;41.574;23.734;2023-02-11T09:26:49;96743.56;;;12.97;27.96
9521;BME280;4798;41.574;23.734;2023-02-11T09:29:18;96746.19;;;13.72;26.44
9521;BME280;4798;41.574;23.734;2023-02-11T09:31:46;96740.53;;;14.32;26.60
9521;BME280;4798;41.574;23.734;2023-02-11T09:34:17;96731.28;;;14.08;26.20
9521;BME280;4798;41.574;23.734;2023-02-11T09:36:45;96725.75;;;14.61;25.92
9521;BME280;4798;41.574;23.734;2023-02-11T09:39:15;96718.16;;;15.00;25.78
9521;BME280;4798;41.574;23.734;2023-02-11T09:42:09;96719.06;;;14.17;25.82
9521;BME280;4798;41.574;23.734;2023-02-11T09:44:45;96710.31;;;14.21;25.90
9521;BME280;4798;41.574;23.734;2023-02-11T09:47:24;96691.44;;;16.46;25.50
9521;BME280;4798;41.574;23.734;2023-02-11T09:49:59;96705.75;;;15.81;24.18
9521;BME280;4798;41.574;23.734;2023-02-11T09:52:38;96607.06;;;14.99;24.92
9521;BME280;4798;41.574;23.734;2023-02-11T09:55:16;96700.13;;;15.62;24.73
9521;BME280;4798;41.574;23.734;2023-02-11T09:57:45;96701.44;;;15.90;24.55
9521;BME280;4798;41.574;23.734;2023-02-11T10:00:22;96683.81;;;15.64;24.14
9521;BME280;4798;41.574;23.734;2023-02-11T10:06:15;96685.66;;;16.14;23.95
9521;BME280;4798;41.574;23.734;2023-02-11T10:08:53;96668.88;;;16.72;22.72
9521;BME280;4798;41.574;23.734;2023-02-11T10:11:31;96667.88;;;16.48;22.91
9521;BME280;4798;41.574;23.734;2023-02-11T10:14:12;96658.41;;;15.76;23.56
9521;BME280;4798;41.574;23.734;2023-02-11T10:16:57;96661.78;;;16.27;23.35
9521;BME280;4798;41.574;23.734;2023-02-11T10:19:42;96651.66;;;16.14;22.94
9521;BME280;4798;41.574;23.734;2023-02-11T10:22:21;96622.59;;;16.67;22.66
9521;BME280;4798;41.574;23.734;2023-02-11T10:24:54;96625.38;;;17.97;22.07
9521;BME280;4798;41.574;23.734;2023-02-11T10:27:29;96613.84;;;18.20;21.66
9521;BME280;4798;41.574;23.734;2023-02-11T10:30:02;96624.31;;;17.69;21.42
9521;BME280;4798;41.574;23.734;2023-02-11T10:32:36;96616.22;;;16.52;22.39
9521;BME280;4798;41.574;23.734;2023-02-11T10:35:12;96603.69;;;16.97;22.39
9521;BME280;4798;41.574;23.734;2023-02-11T10:37:45;96590.19;;;17.12;22.29
9521;BME280;4798;41.574;23.734;2023-02-11T10:40:14;96516.44;;;18.01;21.56
9521;BME280;4798;41.574;23.734;2023-02-11T10:42:46;96588.16;;;19.17;22.58
9521;BME280;4798;41.574;23.734;2023-02-11T10:45:21;96577.03;;;18.68;20.39
9521;BME280;4798;41.574;23.734;2023-02-11T10:47:53;96557.38;;;18.54;21.50
9521;BME280;4798;41.574;23.734;2023-02-11T10:50:24;96559.91;;;20.39;18.03
9521;BME280;4798;41.574;23.734;2023-02-11T10:53:10;96561.06;;;20.19;18.05
9521;BME280;4798;41.574;23.734;2023-02-11T10:55:48;96560.63;;;20.31;19.05
9521;BME280;4798;41.574;23.734;2023-02-11T10:58:24;96522.97;;;19.25;17.84
9521;BME280;4798;41.574;23.734;2023-02-11T11:00:54;96535.06;;;20.01;18.88
9521;BME280;4798;41.574;23.734;2023-02-11T11:03:24;96517.22;;;19.32;18.06
9521;BME280;4798;41.574;23.734;2023-02-11T11:05:55;96488.47;;;17.83;19.06
9521;BME280;4798;41.574;23.734;2023-02-11T11:08:39;96540.97;;;17.65;19.47
9521;BME280;4798;41.574;23.734;2023-02-11T11:11:09;96536.38;;;18.93;19.43
9521;BME280;4798;41.574;23.734;2023-02-11T11:13:39;96429.47;;;16.78;19.28
9521;BME280;4798;41.574;23.734;2023-02-11T11:16:21;96522.59;;;17.20;19.59
9521;BME280;4798;41.574;23.734;2023-02-11T11:18:52;96510.72;;;19.19;19.24
9521;BME280;4798;41.574;23.734;2023-02-11T11:21:22;96507.63;;;18.75;18.71
9521;BME280;4798;41.574;23.734;2023-02-11T11:23:57;96473.78;;;18.92;19.51
9521;BME280;4798;41.574;23.734;2023-02-11T11:26:28;96488.22;;;19.75;18.10
9521;BME280;4798;41.574;23.734;2023-02-11T11:29:08;96491.81;;;18.36;18.36
9521;BME280;4798;41.574;23.734;2023-02-11T11:31:46;96495.59;;;17.93;18.71
9521;BME280;4798;41.574;23.734;2023-02-11T11:34:24;96485.28;;;18.42;18.31
9521;BME280;4798;41.574;23.734;2023-02-11T11:36:55;96485.94;;;19.68;20.03
9521;BME280;4798;41.574;23.734;2023-02-11T11:39:28;96469.94;;;18.98;18.70
9521;BME280;4798;41.574;23.734;2023-02-11T11:41:58;96463.50;;;19.45;18.61
9521;BME280;4798;41.574;23.734;2023-02-11T11:44:31;96461.84;;;20.40;19.54
9521;BME280;4798;41.574;23.734;2023-02-11T11:47:24;96459.09;;;20.31;17.96
9521;BME280;4798;41.574;23.734;2023-02-11T11:50:08;96422.97;;;17.65;20.10
9521;BME280;4798;41.574;23.734;2023-02-11T11:52:44;96425.91;;;17.88;18.88
9521;BME280;4798;41.574;23.734;2023-02-11T11:55:18;96449.16;;;19.04;19.25
9521;BME280;4798;41.574;23.734;2023-02-11T11:57:48;96439.06;;;18.45;19.20
9521;BME280;4798;41.574;23.734;2023-02-11T12:00:19;96434.63;;;19.37;18.17
9521;BME280;4798;41.574;23.734;2023-02-11T12:03:14;96430.50;;;20.08;18.54
9521;BME280;4798;41.574;23.734;2023-02-11T12:05:53;96418.06;;;21.14;18.31
9521;BME280;4798;41.574;23.734;2023-02-11T12:08:32;96369.44;;;20.53;17.99
9521;BME280;4798;41.574;23.734;2023-02-11T12:11:12;96349.13;;;19.07;17.86
9521;BME280;4798;41.574;23.734;2023-02-11T12:13:55;96405.34;;;19.63;18.07
9521;BME280;4798;41.574;23.734;2023-02-11T12:16:34;96389.94;;;19.23;18.68
9521;BME280;4798;41.574;23.734;2023-02-11T12:19:29;96369.16;;;19.83;18.29
9521;BME280;4798;41.574;23.734;2023-02-11T12:22:08;96390.78;;;20.49;18.76
9521;BME280;4798;41.574;23.734;2023-02-11T12:24:50;96395.69;;;18.38;19.46
9521;BME280;4798;41.574;23.734;2023-02-11T12:27:34;96396.63;;;18.10;19.93
9521;BME280;4798;41.574;23.734;2023-02-11T12:30:17;96383.47;;;18.96;19.85
9521;BME280;4798;41.574;23.734;2023-02-11T12:32:52;96384.50;;;19.82;19.74
9521;BME280;4798;41.574;23.734;2023-02-11T12:35:30;96369.28;;;19.37;20.58
9521;BME280;4798;41.574;23.734;2023-02-11T12:38:17;96384.56;;;18.45;20.77
9521;BME280;4798;41.574;23.734;2023-02-11T12:40:56;96384.41;;;17.61;21.53
9521;BME280;4798;41.574;23.734;2023-02-11T12:43:34;96388.22;;;18.54;20.90
9521;BME280;4798;41.574;23.734;2023-02-11T12:46:26;96394.66;;;16.78;22.81
9521;BME280;4798;41.574;23.734;2023-02-11T12:52:04;96372.09;;;18.35;21.57
9521;BME280;4798;41.574;23.734;2023-02-11T12:54:40;96380.19;;;19.27;21.08
9521;BME280;4798;41.574;23.734;2023-02-11T12:57:17;96378.56;;;18.34;21.01
9521;BME280;4798;41.574;23.734;2023-02-11T12:59:54;96371.19;;;18.07;21.63
9521;BME280;4798;41.574;23.734;2023-02-11T13:02:34;96374.53;;;16.18;22.79
9521;BME280;4798;41.574;23.734;2023-02-11T13:05:17;96355.53;;;17.96;21.66
9521;BME280;4798;41.574;23.734;2023-02-11T13:07:49;96356.81;;;17.37;21.31
9521;BME280;4798;41.574;23.734;2023-02-11T13:10:25;96360.41;;;18.63;20.75
9521;BME280;4798;41.574;23.734;2023-02-11T13:12:57;96351.53;;;18.63;20.53
9521;BME280;4798;41.574;23.734;2023-02-11T13:15:55;96359.06;;;17.72;21.37
9521;BME280;4798;41.574;23.734;2023-02-11T13:18:34;96351.66;;;18.20;20.86
9521;BME280;4798;41.574;23.734;2023-02-11T13:21:20;96344.47;;;18.53;20.71
9521;BME280;4798;41.574;23.734;2023-02-11T13:23:58;96341.00;;;19.39;20.15
9521;BME280;4798;41.574;23.734;2023-02-11T13:26:32;96327.41;;;18.76;20.60
9521;BME280;4798;41.574;23.734;2023-02-11T13:29:13;96329.22;;;19.22;20.33
9521;BME280;4798;41.574;23.734;2023-02-11T13:31:52;96320.56;;;19.25;20.66
9521;BME280;4798;41.574;23.734;2023-02-11T13:34:25;96336.59;;;19.57;20.06
9521;BME280;4798;41.574;23.734;2023-02-11T13:36:55;96356.44;;;17.67;21.27
9521;BME280;4798;41.574;23.734;2023-02-11T13:39:23;96346.00;;;17.00;22.34
9521;BME280;4798;41.574;23.734;2023-02-11T13:42:02;96323.88;;;18.30;21.06
9521;BME280;4798;41.574;23.734;2023-02-11T13:44:32;96327.50;;;18.39;20.99
9521;BME280;4798;41.574;23.734;2023-02-11T13:47:03;96317.03;;;17.68;21.57
9521;BME280;4798;41.574;23.734;2023-02-11T13:49:34;96316.94;;;18.75;20.70
9521;BME280;4798;41.574;23.734;2023-02-11T13:52:20;96327.41;;;18.76;20.94
9521;BME280;4798;41.574;23.734;2023-02-11T13:54:50;96320.22;;;17.70;21.42
9521;BME280;4798;41.574;23.734;2023-02-11T13:57:37;96327.06;;;16.34;23.03
9521;BME280;4798;41.574;23.734;2023-02-11T14:03:29;96319.59;;;18.29;21.06